createdAt,value
2023-05-08T00:00:08.126Z,99.30
2023-05-08T00:02:34.920Z,99.40
2023-05-08T00:05:01.763Z,99.50
2023-05-08T00:07:28.573Z,99.30
2023-05-08T00:09:55.289Z,98.90
2023-05-08T00:12:21.956Z,98.80
2023-05-08T00:14:48.575Z,98.50
2023-05-08T00:17:15.354Z,98.50
2023-05-08T00:19:42.011Z,98.70
2023-05-08T00:22:08.640Z,98.50
2023-05-08T00:24:35.283Z,98.50
2023-05-08T00:27:01.903Z,98.50
2023-05-08T00:29:28.525Z,98.70
2023-05-08T00:31:55.354Z,98.80
2023-05-08T00:34:22.095Z,98.40
2023-05-08T00:36:48.749Z,98.50
2023-05-08T00:39:15.586Z,98.50
2023-05-08T00:41:42.568Z,98.60
2023-05-08T00:44:09.447Z,98.60
2023-05-08T00:46:36.899Z,98.60
2023-05-08T00:49:05.067Z,98.60
2023-05-08T00:51:32.133Z,98.50
2023-05-08T00:54:00.044Z,98.40
2023-05-08T00:56:29.424Z,98.40
2023-05-08T00:58:56.845Z,98.50
2023-05-08T01:01:24.360Z,98.40
2023-05-08T01:03:51.303Z,98.40
2023-05-08T01:06:18.050Z,98.50
2023-05-08T01:08:46.012Z,98.10
2023-05-08T01:11:15.580Z,98.00
2023-05-08T01:13:54.009Z,98.00
2023-05-08T01:16:33.121Z,98.00
2023-05-08T01:19:21.448Z,97.80
2023-05-08T01:22:07.182Z,97.80
2023-05-08T01:24:58.600Z,97.90
2023-05-08T01:27:50.189Z,98.00
2023-05-08T01:30:27.954Z,98.00
2023-05-08T01:32:58.260Z,98.00
2023-05-08T01:35:34.555Z,98.10
2023-05-08T01:38:15.032Z,98.10
2023-05-08T01:40:53.622Z,98.00
2023-05-08T01:43:31.097Z,98.00
2023-05-08T01:46:05.248Z,98.20
2023-05-08T01:48:35.381Z,98.60
2023-05-08T01:51:18.016Z,98.40
2023-05-08T01:53:51.051Z,98.40
2023-05-08T01:56:22.176Z,98.20
2023-05-08T01:58:52.849Z,98.50
2023-05-08T02:01:23.525Z,98.40
2023-05-08T02:03:51.783Z,98.20
2023-05-08T02:06:21.935Z,98.40
2023-05-08T02:08:49.729Z,98.40
2023-05-08T02:11:18.103Z,98.30
2023-05-08T02:13:47.605Z,98.50
2023-05-08T02:16:15.090Z,98.70
2023-05-08T02:18:48.448Z,98.30
2023-05-08T02:21:17.361Z,98.40
2023-05-08T02:23:46.803Z,98.60
2023-05-08T02:26:15.866Z,98.70
2023-05-08T02:28:43.485Z,98.70
2023-05-08T02:31:12.265Z,98.80
2023-05-08T02:33:41.943Z,98.70
2023-05-08T02:36:10.576Z,98.60
2023-05-08T02:38:39.747Z,98.50
2023-05-08T02:41:07.858Z,98.50
2023-05-08T02:43:35.311Z,98.40
2023-05-08T02:46:04.802Z,98.30
2023-05-08T02:48:44.305Z,98.40
2023-05-08T02:51:21.193Z,98.30
2023-05-08T02:53:56.147Z,98.70
2023-05-08T02:56:43.853Z,98.70
2023-05-08T02:59:16.813Z,98.70
2023-05-08T03:01:57.823Z,98.60
2023-05-08T03:04:34.480Z,98.20
2023-05-08T03:07:02.977Z,98.20
2023-05-08T03:09:43.138Z,98.40
2023-05-08T03:12:15.679Z,98.20
2023-05-08T03:14:53.035Z,98.70
2023-05-08T03:17:22.444Z,98.50
2023-05-08T03:19:52.529Z,98.40
2023-05-08T03:22:21.033Z,98.50
2023-05-08T03:24:49.353Z,98.60
2023-05-08T03:27:17.628Z,98.70
2023-05-08T03:29:45.635Z,98.80
2023-05-08T03:32:14.002Z,98.50
2023-05-08T03:34:41.240Z,98.30
2023-05-08T03:37:08.193Z,98.50
2023-05-08T03:39:35.065Z,98.90
2023-05-08T03:42:02.020Z,98.60
2023-05-08T03:44:30.532Z,98.90
2023-05-08T03:46:58.480Z,98.80
2023-05-08T03:49:31.216Z,99.00
2023-05-08T03:51:59.012Z,99.30
2023-05-08T03:54:27.630Z,99.20
2023-05-08T03:56:54.672Z,99.20
2023-05-08T03:59:38.301Z,99.40
2023-05-08T04:02:29.247Z,99.50
2023-05-08T04:05:05.494Z,99.60
2023-05-08T04:07:35.817Z,99.90
2023-05-08T04:10:29.216Z,99.60
2023-05-08T04:13:07.311Z,99.40
2023-05-08T04:15:38.307Z,99.30
2023-05-08T04:18:08.259Z,98.80
2023-05-08T04:20:35.769Z,98.90
2023-05-08T04:23:03.791Z,99.10
2023-05-08T04:25:32.286Z,99.10
2023-05-08T04:27:59.465Z,98.90
2023-05-08T04:30:27.073Z,98.90
2023-05-08T04:32:54.771Z,98.80
2023-05-08T04:35:21.631Z,98.90
2023-05-08T04:37:48.429Z,98.80
2023-05-08T04:40:15.303Z,99.00
2023-05-08T04:42:43.526Z,98.60
2023-05-08T04:45:11.093Z,99.00
2023-05-08T04:47:37.970Z,98.90
2023-05-08T04:50:05.070Z,98.70
2023-05-08T04:52:31.722Z,98.60
2023-05-08T04:54:58.381Z,98.80
2023-05-08T04:57:25.084Z,98.50
2023-05-08T04:59:51.796Z,98.60
2023-05-08T05:02:18.831Z,98.50
2023-05-08T05:04:45.546Z,98.70
2023-05-08T05:07:12.202Z,98.50
2023-05-08T05:09:39.251Z,98.50
2023-05-08T05:12:07.026Z,98.40
2023-05-08T05:14:34.860Z,98.70
2023-05-08T05:17:01.553Z,98.40
2023-05-08T05:19:28.187Z,98.20
2023-05-08T05:21:54.878Z,98.50
2023-05-08T05:24:21.603Z,98.30
2023-05-08T05:26:48.263Z,98.20
2023-05-08T05:29:14.893Z,98.30
2023-05-08T05:31:42.379Z,98.20
2023-05-08T05:34:09.215Z,98.20
2023-05-08T05:36:35.960Z,98.20
2023-05-08T05:39:03.164Z,98.20
2023-05-08T05:41:29.827Z,97.90
2023-05-08T05:43:56.488Z,98.10
2023-05-08T05:46:28.060Z,97.90
2023-05-08T05:48:55.053Z,98.00
2023-05-08T05:51:21.770Z,97.80
2023-05-08T05:53:48.428Z,97.70
2023-05-08T05:56:15.424Z,97.60
2023-05-08T05:58:44.875Z,97.50
2023-05-08T06:01:12.353Z,97.60
2023-05-08T06:03:39.112Z,97.70
2023-05-08T06:06:06.158Z,97.50
2023-05-08T06:08:32.828Z,97.10
2023-05-08T06:10:59.547Z,97.00
2023-05-08T06:13:26.510Z,97.00
2023-05-08T06:15:58.045Z,97.10
2023-05-08T06:18:24.677Z,96.70
2023-05-08T06:20:58.123Z,96.60
2023-05-08T06:23:25.624Z,96.60
2023-05-08T06:25:52.598Z,96.50
2023-05-08T06:28:19.952Z,96.50
2023-05-08T06:30:46.694Z,96.30
2023-05-08T06:33:13.390Z,96.60
2023-05-08T06:35:40.132Z,96.40
2023-05-08T06:38:06.765Z,96.40
2023-05-08T06:40:33.468Z,96.20
2023-05-08T06:43:00.209Z,96.40
2023-05-08T06:45:26.954Z,96.30
2023-05-08T06:47:53.953Z,96.60
2023-05-08T06:50:20.831Z,96.30
2023-05-08T06:52:47.477Z,96.20
2023-05-08T06:55:14.477Z,96.30
2023-05-08T06:57:41.297Z,95.90
2023-05-08T07:00:08.808Z,96.00
2023-05-08T07:02:35.611Z,96.00
2023-05-08T07:05:03.155Z,95.90
2023-05-08T07:07:30.061Z,95.90
2023-05-08T07:09:56.730Z,95.60
2023-05-08T07:12:23.391Z,95.70
2023-05-08T07:14:50.300Z,95.50
2023-05-08T07:17:16.969Z,95.70
2023-05-08T07:19:43.662Z,95.90
2023-05-08T07:22:10.849Z,95.60
2023-05-08T07:24:37.526Z,95.30
2023-05-08T07:27:04.192Z,95.60
2023-05-08T07:29:30.894Z,95.50
2023-05-08T07:31:57.736Z,95.20
2023-05-08T07:34:24.582Z,95.00
2023-05-08T07:36:51.312Z,95.20
2023-05-08T07:39:17.999Z,95.00
2023-05-08T07:41:46.759Z,95.10
2023-05-08T07:44:15.133Z,95.10
2023-05-08T07:46:41.864Z,94.90
2023-05-08T07:49:08.625Z,95.10
2023-05-08T07:51:35.370Z,94.90
2023-05-08T07:54:02.190Z,94.40
2023-05-08T07:56:28.844Z,94.70
2023-05-08T07:58:55.655Z,94.50
2023-05-08T08:01:22.419Z,94.50
2023-05-08T08:03:49.255Z,94.70
2023-05-08T08:06:16.091Z,94.80
2023-05-08T08:08:42.727Z,94.70
2023-05-08T08:11:09.844Z,94.80
2023-05-08T08:13:36.517Z,95.50
2023-05-08T08:16:04.205Z,94.70
2023-05-08T08:18:33.784Z,94.50
2023-05-08T08:21:00.561Z,94.00
2023-05-08T08:23:27.322Z,93.80
2023-05-08T08:25:54.189Z,93.50
2023-05-08T08:28:20.886Z,93.20
2023-05-08T08:30:47.586Z,92.40
2023-05-08T08:33:15.010Z,91.60
2023-05-08T08:35:42.944Z,91.10
2023-05-08T08:38:09.588Z,90.80
2023-05-08T08:40:43.137Z,90.50
2023-05-08T08:43:10.054Z,90.50
2023-05-08T08:45:37.664Z,90.20
2023-05-08T08:48:05.384Z,90.30
2023-05-08T08:50:33.316Z,90.10
2023-05-08T08:53:10.617Z,90.00
2023-05-08T08:55:40.644Z,89.80
2023-05-08T08:58:39.037Z,89.70
2023-05-08T09:01:08.818Z,88.30
2023-05-08T09:03:35.723Z,88.10
2023-05-08T09:06:03.135Z,88.60
2023-05-08T09:08:29.936Z,87.60
2023-05-08T09:10:56.715Z,88.30
2023-05-08T09:13:23.449Z,86.70
2023-05-08T09:15:50.699Z,87.00
2023-05-08T09:18:17.680Z,86.80
2023-05-08T09:20:45.022Z,87.30
2023-05-08T09:23:12.224Z,86.60
2023-05-08T09:25:46.978Z,86.70
2023-05-08T09:28:25.019Z,86.90
2023-05-08T09:30:53.702Z,87.40
2023-05-08T09:33:22.110Z,86.90
2023-05-08T09:35:49.072Z,86.90
2023-05-08T09:38:37.686Z,86.00
2023-05-08T09:41:16.227Z,85.70
2023-05-08T09:43:44.631Z,85.30
2023-05-08T09:46:25.497Z,86.80
2023-05-08T09:48:57.455Z,87.40
2023-05-08T09:51:25.500Z,87.40
2023-05-08T09:53:53.236Z,86.90
2023-05-08T09:56:34.498Z,86.60
2023-05-08T09:59:04.099Z,86.40
2023-05-08T10:01:36.618Z,87.00
2023-05-08T10:04:05.516Z,87.30
2023-05-08T10:06:32.499Z,86.40
2023-05-08T10:09:10.286Z,86.60
2023-05-08T10:11:37.341Z,87.80
2023-05-08T10:14:04.071Z,88.20
2023-05-08T10:16:36.668Z,88.00
2023-05-08T10:19:11.846Z,87.30
2023-05-08T10:21:42.502Z,87.20
2023-05-08T10:24:16.137Z,86.20
2023-05-08T10:27:02.695Z,86.30
2023-05-08T10:29:56.447Z,85.90
2023-05-08T10:32:24.866Z,85.80
2023-05-08T10:34:59.470Z,86.20
2023-05-08T10:37:29.592Z,86.10
2023-05-08T10:39:58.007Z,85.70
2023-05-08T10:42:25.781Z,85.20
2023-05-08T10:44:53.374Z,85.00
2023-05-08T10:47:27.361Z,84.30
2023-05-08T10:50:13.068Z,84.50
2023-05-08T10:52:54.909Z,83.00
2023-05-08T10:55:32.358Z,82.40
2023-05-08T10:58:28.277Z,82.40
2023-05-08T11:01:00.688Z,82.10
2023-05-08T11:03:32.605Z,81.30
2023-05-08T11:06:01.194Z,81.90
2023-05-08T11:08:29.238Z,82.80
2023-05-08T11:11:01.992Z,82.00
2023-05-08T11:13:55.304Z,81.60
2023-05-08T11:16:53.151Z,81.50
2023-05-08T11:19:22.355Z,80.60
2023-05-08T11:22:11.137Z,80.20
2023-05-08T11:24:39.934Z,80.10
2023-05-08T11:27:07.437Z,80.50
2023-05-08T11:29:34.199Z,80.10
2023-05-08T11:32:00.981Z,80.30
2023-05-08T11:34:43.414Z,79.60
2023-05-08T11:37:10.808Z,80.50
2023-05-08T11:39:37.847Z,79.80
2023-05-08T11:42:29.428Z,79.90
2023-05-08T11:45:06.595Z,79.60
2023-05-08T11:48:00.741Z,79.30
2023-05-08T11:50:27.827Z,79.80
2023-05-08T11:52:54.482Z,79.80
2023-05-08T11:55:21.243Z,79.00
2023-05-08T11:57:47.896Z,79.40
2023-05-08T12:00:15.241Z,80.00
2023-05-08T12:02:45.811Z,80.10
2023-05-08T12:05:12.633Z,80.20
2023-05-08T12:07:47.029Z,80.20
2023-05-08T12:10:17.772Z,80.60
2023-05-08T12:12:45.149Z,80.30
2023-05-08T12:15:14.882Z,80.10
2023-05-08T12:17:42.839Z,80.90
2023-05-08T12:20:17.913Z,81.20
2023-05-08T12:22:52.762Z,79.70
2023-05-08T12:25:20.105Z,79.40
2023-05-08T12:27:47.007Z,79.50
2023-05-08T12:30:15.591Z,79.10
2023-05-08T12:32:43.761Z,78.90
2023-05-08T12:35:12.110Z,79.20
2023-05-08T12:37:38.962Z,78.40
2023-05-08T12:40:07.211Z,78.40
2023-05-08T12:42:46.537Z,78.20
2023-05-08T12:45:28.017Z,77.80
2023-05-08T12:47:59.778Z,77.20
2023-05-08T12:50:26.497Z,77.30
2023-05-08T12:52:53.826Z,77.00
2023-05-08T12:55:25.810Z,77.50
2023-05-08T12:58:03.351Z,77.10
2023-05-08T13:00:47.127Z,77.80
2023-05-08T13:03:21.964Z,76.90
2023-05-08T13:05:48.738Z,77.20
2023-05-08T13:08:15.385Z,77.40
2023-05-08T13:10:53.805Z,76.60
2023-05-08T13:13:21.400Z,75.90
2023-05-08T13:15:49.410Z,76.00
2023-05-08T13:18:17.011Z,76.30
2023-05-08T13:20:44.133Z,75.70
2023-05-08T13:23:11.303Z,75.60
2023-05-08T13:25:39.054Z,74.10
2023-05-08T13:28:07.215Z,73.70
2023-05-08T13:30:34.745Z,73.70
2023-05-08T13:33:01.680Z,73.60
2023-05-08T13:35:28.746Z,73.50
2023-05-08T13:37:56.695Z,73.00
2023-05-08T13:40:24.173Z,72.80
2023-05-08T13:42:51.177Z,72.20
2023-05-08T13:45:18.718Z,72.00
2023-05-08T13:47:46.672Z,72.50
2023-05-08T13:50:15.816Z,73.10
2023-05-08T13:52:42.997Z,73.70
2023-05-08T13:55:14.017Z,74.50
2023-05-08T13:57:41.320Z,75.10
2023-05-08T14:00:09.189Z,75.60
2023-05-08T14:02:37.177Z,74.50
2023-05-08T14:05:05.347Z,75.60
2023-05-08T14:07:32.068Z,75.50
2023-05-08T14:09:58.786Z,74.80
2023-05-08T14:12:25.490Z,76.30
2023-05-08T14:14:52.210Z,75.80
2023-05-08T14:17:18.977Z,76.90
2023-05-08T14:19:48.458Z,77.50
2023-05-08T14:22:15.204Z,77.10
2023-05-08T14:24:41.899Z,77.90
2023-05-08T14:27:08.580Z,78.50
2023-05-08T14:29:35.376Z,79.40
2023-05-08T14:32:02.302Z,79.60
2023-05-08T14:34:29.102Z,79.80
2023-05-08T14:36:55.776Z,80.40
2023-05-08T14:39:22.477Z,81.90
2023-05-08T14:42:10.447Z,83.00
2023-05-08T14:44:35.927Z,82.80
2023-05-08T14:47:02.647Z,82.80
2023-05-08T14:49:37.258Z,83.10
2023-05-08T14:52:06.122Z,83.70
2023-05-08T14:54:33.014Z,84.00
2023-05-08T14:57:00.185Z,83.50
2023-05-08T14:59:26.845Z,85.10
2023-05-08T15:01:53.648Z,83.80
2023-05-08T15:04:20.561Z,83.60
2023-05-08T15:06:47.457Z,84.10
2023-05-08T15:09:16.264Z,83.80
2023-05-08T15:11:43.109Z,84.60
2023-05-08T15:14:09.973Z,84.60
2023-05-08T15:16:37.201Z,85.70
2023-05-08T15:19:03.983Z,86.40
2023-05-08T15:21:31.015Z,86.60
2023-05-08T15:23:57.801Z,85.80
2023-05-08T15:26:24.450Z,84.40
2023-05-08T15:28:51.216Z,84.00
2023-05-08T15:31:18.338Z,84.80
2023-05-08T15:33:45.587Z,84.60
2023-05-08T15:36:13.615Z,85.50
2023-05-08T15:38:41.290Z,86.90
2023-05-08T15:41:12.102Z,82.70
2023-05-08T15:43:40.936Z,82.20
2023-05-08T15:46:07.718Z,82.60
2023-05-08T15:48:35.787Z,82.30
2023-05-08T15:51:02.560Z,82.40
2023-05-08T15:53:29.281Z,81.60
2023-05-08T15:55:57.028Z,81.60
2023-05-08T15:58:24.422Z,82.90
2023-05-08T16:00:51.335Z,81.40
2023-05-08T16:03:18.241Z,82.90
2023-05-08T16:05:45.178Z,82.40
2023-05-08T16:08:13.726Z,80.60
2023-05-08T16:10:41.764Z,78.60
2023-05-08T16:13:08.767Z,79.40
2023-05-08T16:15:35.788Z,78.60
2023-05-08T16:18:02.965Z,79.50
2023-05-08T16:20:30.002Z,78.70
2023-05-08T16:22:57.101Z,79.90
2023-05-08T16:25:24.576Z,76.30
2023-05-08T16:27:51.376Z,77.10
2023-05-08T16:30:18.771Z,76.70
2023-05-08T16:32:48.315Z,78.40
2023-05-08T16:35:15.579Z,76.90
2023-05-08T16:37:42.953Z,76.40
2023-05-08T16:40:10.413Z,76.40
2023-05-08T16:42:37.518Z,74.50
2023-05-08T16:45:08.189Z,74.80
2023-05-08T16:47:35.154Z,74.80
2023-05-08T16:50:02.017Z,75.20
2023-05-08T16:52:28.760Z,73.80
2023-05-08T16:54:55.453Z,74.60
2023-05-08T16:57:22.113Z,73.90
2023-05-08T16:59:48.996Z,74.50
2023-05-08T17:02:18.890Z,73.60
2023-05-08T17:04:49.721Z,74.20
2023-05-08T17:07:17.255Z,73.70
2023-05-08T17:09:44.173Z,74.80
2023-05-08T17:12:10.950Z,74.60
2023-05-08T17:14:39.825Z,74.70
2023-05-08T17:17:07.007Z,73.80
2023-05-08T17:19:34.176Z,74.30
2023-05-08T17:22:00.997Z,74.90
2023-05-08T17:24:29.567Z,75.60
2023-05-08T17:26:56.239Z,77.50
2023-05-08T17:29:22.894Z,78.90
2023-05-08T17:31:49.611Z,80.00
2023-05-08T17:34:16.426Z,80.40
2023-05-08T17:36:43.116Z,80.50
2023-05-08T17:39:09.767Z,79.90
2023-05-08T17:41:36.605Z,79.60
2023-05-08T17:44:04.172Z,79.70
2023-05-08T17:46:30.793Z,80.00
2023-05-08T17:48:57.437Z,79.80
2023-05-08T17:51:24.129Z,79.90
2023-05-08T17:53:50.781Z,80.10
2023-05-08T17:56:20.393Z,80.60
2023-05-08T17:58:47.413Z,80.70
2023-05-08T18:01:14.118Z,81.80
2023-05-08T18:03:41.042Z,81.20
2023-05-08T18:06:08.047Z,81.40
2023-05-08T18:08:34.769Z,81.70
2023-05-08T18:11:01.710Z,81.80
2023-05-08T18:13:28.434Z,81.60
2023-05-08T18:15:55.152Z,82.20
2023-05-08T18:18:21.817Z,82.50
2023-05-08T18:20:48.535Z,82.70
2023-05-08T18:23:15.235Z,83.20
2023-05-08T18:25:41.964Z,83.30
2023-05-08T18:28:08.610Z,82.90
2023-05-08T18:30:36.378Z,82.90
2023-05-08T18:33:03.324Z,82.70
2023-05-08T18:35:29.982Z,83.20
2023-05-08T18:37:56.757Z,83.30
2023-05-08T18:40:23.448Z,83.10
2023-05-08T18:42:50.190Z,83.30
2023-05-08T18:45:16.984Z,83.80
2023-05-08T18:47:43.729Z,83.70
2023-05-08T18:50:10.780Z,83.80
2023-05-08T18:52:37.545Z,83.80
2023-05-08T18:55:04.478Z,84.10
2023-05-08T18:57:31.168Z,84.30
2023-05-08T18:59:57.880Z,84.70
2023-05-08T19:02:24.739Z,84.90
2023-05-08T19:04:51.611Z,85.00
2023-05-08T19:07:18.335Z,85.40
2023-05-08T19:09:44.988Z,85.30
2023-05-08T19:12:11.639Z,85.70
2023-05-08T19:14:38.483Z,85.70
2023-05-08T19:17:05.153Z,86.10
2023-05-08T19:19:31.889Z,86.20
2023-05-08T19:21:58.726Z,86.40
2023-05-08T19:24:29.640Z,87.20
2023-05-08T19:26:57.274Z,86.70
2023-05-08T19:29:24.309Z,86.70
2023-05-08T19:31:51.186Z,86.80
2023-05-08T19:34:18.136Z,86.70
2023-05-08T19:36:44.828Z,86.90
2023-05-08T19:39:11.570Z,86.70
2023-05-08T19:41:38.328Z,86.20
2023-05-08T19:44:04.964Z,85.80
2023-05-08T19:46:31.700Z,85.90
2023-05-08T19:48:58.378Z,85.30
2023-05-08T19:51:25.215Z,85.50
2023-05-08T19:53:51.860Z,85.20
2023-05-08T19:56:18.501Z,85.00
2023-05-08T19:58:45.535Z,85.20
2023-05-08T20:01:12.195Z,84.80
2023-05-08T20:03:39.039Z,85.00
2023-05-08T20:06:05.873Z,85.00
2023-05-08T20:08:32.519Z,85.10
2023-05-08T20:11:02.319Z,84.70
2023-05-08T20:13:29.127Z,84.50
2023-05-08T20:15:55.953Z,84.50
2023-05-08T20:18:22.694Z,84.20
2023-05-08T20:20:49.371Z,84.10
2023-05-08T20:23:16.048Z,83.90
2023-05-08T20:25:46.148Z,83.90
2023-05-08T20:28:12.900Z,84.10
2023-05-08T20:30:39.618Z,84.00
2023-05-08T20:33:06.398Z,83.80
2023-05-08T20:35:33.475Z,83.70
2023-05-08T20:38:00.187Z,85.10
2023-05-08T20:40:26.823Z,84.50
2023-05-08T20:42:53.487Z,84.80
2023-05-08T20:45:20.202Z,85.30
2023-05-08T20:47:47.345Z,84.80
2023-05-08T20:50:16.070Z,85.20
2023-05-08T20:52:43.145Z,85.60
2023-05-08T20:55:10.184Z,86.50
2023-05-08T20:57:36.980Z,86.10
2023-05-08T21:00:04.355Z,85.60
2023-05-08T21:02:31.098Z,85.90
2023-05-08T21:04:57.806Z,85.90
2023-05-08T21:07:24.504Z,85.10
2023-05-08T21:09:51.218Z,84.50
2023-05-08T21:12:17.890Z,84.40
2023-05-08T21:14:44.574Z,84.80
2023-05-08T21:17:11.240Z,85.10
2023-05-08T21:19:38.088Z,85.50
2023-05-08T21:22:04.905Z,85.90
2023-05-08T21:24:31.624Z,86.10
2023-05-08T21:26:59.681Z,86.50
2023-05-08T21:29:26.546Z,87.90
2023-05-08T21:31:53.373Z,87.70
2023-05-08T21:34:22.868Z,87.90
2023-05-08T21:36:49.617Z,88.10
2023-05-08T21:39:16.297Z,88.50
2023-05-08T21:41:43.720Z,88.70
2023-05-08T21:44:13.383Z,88.80
2023-05-08T21:46:40.109Z,88.80
2023-05-08T21:49:06.815Z,88.90
2023-05-08T21:51:33.659Z,88.90
2023-05-08T21:54:00.345Z,89.10
2023-05-08T21:56:27.025Z,89.30
2023-05-08T21:58:53.669Z,88.90
2023-05-08T22:01:20.392Z,89.50
2023-05-08T22:03:47.298Z,89.70
2023-05-08T22:06:14.110Z,89.50
2023-05-08T22:08:40.751Z,89.50
2023-05-08T22:11:07.418Z,89.40
2023-05-08T22:13:34.121Z,89.80
2023-05-08T22:16:00.832Z,89.80
2023-05-08T22:18:27.526Z,88.90
2023-05-08T22:20:55.030Z,88.70
2023-05-08T22:23:21.733Z,87.80
2023-05-08T22:25:48.404Z,87.70
2023-05-08T22:28:15.076Z,87.30
2023-05-08T22:30:41.723Z,87.10
2023-05-08T22:33:08.541Z,87.60
2023-05-08T22:35:35.395Z,87.30
2023-05-08T22:38:02.165Z,87.10
2023-05-08T22:40:28.887Z,87.40
2023-05-08T22:42:56.168Z,87.00
2023-05-08T22:45:23.546Z,86.90
2023-05-08T22:47:50.690Z,87.10
2023-05-08T22:50:17.490Z,86.70
2023-05-08T22:52:44.596Z,86.00
2023-05-08T22:55:11.425Z,86.60
2023-05-08T22:57:38.240Z,86.50
2023-05-08T23:00:07.106Z,86.30
2023-05-08T23:02:35.057Z,86.10
2023-05-08T23:05:02.259Z,85.90
2023-05-08T23:07:29.379Z,85.40
2023-05-08T23:09:56.153Z,85.10
2023-05-08T23:12:22.857Z,84.90
2023-05-08T23:14:49.596Z,84.90
2023-05-08T23:17:16.348Z,85.30
2023-05-08T23:19:43.102Z,85.50
2023-05-08T23:22:10.010Z,86.80
2023-05-08T23:24:37.393Z,88.60
2023-05-08T23:27:04.145Z,90.00
2023-05-08T23:29:30.809Z,90.50
2023-05-08T23:31:57.458Z,90.70
2023-05-08T23:34:24.102Z,90.80
2023-05-08T23:36:50.776Z,90.80
2023-05-08T23:39:17.426Z,90.70
2023-05-08T23:41:44.087Z,90.80
2023-05-08T23:44:10.742Z,90.70
2023-05-08T23:46:37.431Z,90.90
2023-05-08T23:49:07.057Z,91.10
2023-05-08T23:51:34.086Z,91.30
2023-05-08T23:54:01.005Z,91.30
2023-05-08T23:56:29.244Z,91.50
2023-05-08T23:58:56.004Z,91.50
